Time;durP1;ratioP1;P1;durP2;ratioP2;P2;SDS_P1;SDS_P2;PMS_P1;PMS_P2;Temp;Humidity;BMP_temperature;BMP_pressure;BME280_temperature;BME280_humidity;BME280_pressure;Samples;Min_cycle;Max_cycle;Signal;HPM_P1;HPM_P2
2024/01/04 00:00:29;;;;;;;2.97;1.10;;;;;;;7.74;82.75;98334.19;5060642;28;20056;-45
2024/01/04 00:02:55;;;;;;;6.82;1.23;;;;;;;7.71;81.77;98345.38;5065961;28;20477;-45
2024/01/04 00:05:22;;;;;;;3.47;1.08;;;;;;;7.70;82.40;98337.69;5063369;28;20059;-47
2024/01/04 00:07:51;;;;;;;5.82;2.15;;;;;;;7.69;82.10;98342.00;5069241;28;20048;-46
2024/01/04 00:10:17;;;;;;;4.68;2.30;;;;;;;7.71;81.77;98344.53;5065591;28;20060;-45
2024/01/04 00:12:45;;;;;;;3.25;0.93;;;;;;;7.69;82.25;98352.31;5067068;28;20056;-46
2024/01/04 00:15:12;;;;;;;2.72;1.05;;;;;;;7.68;82.02;98353.19;5060611;28;20045;-50
2024/01/04 00:17:39;;;;;;;2.95;0.80;;;;;;;7.68;82.72;98358.34;5065447;28;20072;-46
2024/01/04 00:20:06;;;;;;;1.58;0.75;;;;;;;7.68;82.01;98349.75;5060901;28;20575;-50
2024/01/04 00:22:33;;;;;;;3.80;1.80;;;;;;;7.68;82.20;98366.06;5065860;28;20051;-47
2024/01/04 00:25:00;;;;;;;15.63;1.00;;;;;;;7.67;82.46;98361.78;5061267;28;20494;-46
2024/01/04 00:27:26;;;;;;;4.63;1.60;;;;;;;7.67;81.94;98363.53;5057607;28;20118;-44
2024/01/04 00:29:53;;;;;;;3.63;1.15;;;;;;;7.66;82.41;98366.94;5064161;28;20045;-48
2024/01/04 00:32:20;;;;;;;2.83;1.00;;;;;;;7.65;82.10;98358.38;5063677;28;20417;-43
2024/01/04 00:34:47;;;;;;;3.25;1.05;;;;;;;7.65;82.06;98363.53;5068670;28;20056;-48
2024/01/04 00:37:13;;;;;;;3.50;1.80;;;;;;;7.62;81.22;98371.31;5067569;28;20052;-47
2024/01/04 00:39:40;;;;;;;2.00;0.55;;;;;;;7.57;81.34;98370.56;5062786;28;20056;-47
2024/01/04 00:42:07;;;;;;;1.00;0.52;;;;;;;7.57;82.42;98373.13;5067905;28;20044;-46
2024/01/04 00:44:33;;;;;;;1.55;0.77;;;;;;;7.53;81.67;98379.22;5067974;28;20048;-46
2024/01/04 00:47:00;;;;;;;2.13;0.80;;;;;;;7.56;81.80;98381.72;5066483;28;20040;-46
2024/01/04 00:49:32;;;;;;;1.67;0.65;;;;;;;7.52;81.72;98391.25;5064658;28;20050;-45
2024/01/04 00:51:59;;;;;;;4.28;0.88;;;;;;;7.52;82.13;98395.53;5065939;28;20055;-49
2024/01/04 00:54:25;;;;;;;1.88;1.08;;;;;;;7.51;82.19;98393.84;5066431;28;20045;-43
2024/01/04 00:56:52;;;;;;;2.63;0.93;;;;;;;7.49;82.43;98398.19;5066042;28;20113;-47
2024/01/04 00:59:19;;;;;;;1.20;0.95;;;;;;;7.42;82.47;98400.00;5060052;28;20513;-45
2024/01/04 01:01:45;;;;;;;1.70;0.60;;;;;;;7.43;82.19;98402.53;5059184;28;20049;-48
2024/01/04 01:04:12;;;;;;;1.95;0.73;;;;;;;7.43;81.80;98410.28;5063997;28;20650;-45
2024/01/04 01:06:39;;;;;;;2.05;0.80;;;;;;;7.41;81.65;98403.44;5055979;28;20060;-52
2024/01/04 01:09:05;;;;;;;7.47;1.02;;;;;;;7.43;82.58;98415.44;5066329;28;20053;-50
2024/01/04 01:11:32;;;;;;;2.00;0.80;;;;;;;7.43;81.72;98412.84;5063204;28;20068;-47
2024/01/04 01:13:59;;;;;;;0.82;0.60;;;;;;;7.43;81.52;98418.00;5066989;28;20127;-51
2024/01/04 01:16:25;;;;;;;1.75;0.95;;;;;;;7.41;81.60;98424.06;5061815;28;20049;-46
2024/01/04 01:18:53;;;;;;;2.97;1.30;;;;;;;7.40;82.60;98424.94;5065147;28;20048;-44
2024/01/04 01:21:20;;;;;;;4.40;0.95;;;;;;;7.39;81.65;98421.50;5060386;28;20546;-46
2024/01/04 01:23:47;;;;;;;2.20;1.23;;;;;;;7.39;82.64;98429.22;5065015;28;20524;-47
2024/01/04 01:26:14;;;;;;;2.38;0.80;;;;;;;7.39;82.20;98416.34;5065563;28;20634;-49
2024/01/04 01:28:40;;;;;;;3.67;0.73;;;;;;;7.35;82.44;98425.00;5066358;28;20048;-49
2024/01/04 01:31:07;;;;;;;4.22;1.20;;;;;;;7.38;81.88;98429.25;5060817;28;20052;-44
2024/01/04 01:33:35;;;;;;;2.50;1.40;;;;;;;7.40;82.26;98436.06;5061621;28;20052;-46
2024/01/04 01:36:06;;;;;;;1.90;0.93;;;;;;;7.39;82.44;98436.09;5066781;28;20048;-47
2024/01/04 01:38:33;;;;;;;1.63;0.88;;;;;;;7.40;82.41;98438.66;5061957;28;20141;-48
2024/01/04 01:41:00;;;;;;;4.22;1.13;;;;;;;7.41;82.46;98442.94;5061593;28;20055;-51
2024/01/04 01:43:29;;;;;;;2.72;0.70;;;;;;;7.40;81.89;98443.81;5067569;28;20143;-46
2024/01/04 01:45:56;;;;;;;2.97;1.08;;;;;;;7.39;82.53;98442.13;5066246;28;20044;-43
2024/01/04 01:48:23;;;;;;;3.40;0.95;;;;;;;7.40;81.91;98446.38;5063358;28;20410;-47
2024/01/04 01:50:50;;;;;;;4.40;1.00;;;;;;;7.37;81.40;98449.03;5065850;28;20052;-48
2024/01/04 01:53:18;;;;;;;4.22;1.20;;;;;;;7.37;82.52;98456.75;5062468;28;20060;-46
2024/01/04 01:55:46;;;;;;;2.15;0.90;;;;;;;7.38;82.25;98463.59;5068423;28;20044;-48
2024/01/04 01:58:13;;;;;;;3.03;0.90;;;;;;;7.38;82.22;98468.75;5069163;28;20049;-48
2024/01/04 02:00:40;;;;;;;1.77;0.93;;;;;;;7.38;81.53;98466.19;5070771;28;20048;-48
2024/01/04 02:03:08;;;;;;;1.75;0.70;;;;;;;7.38;81.71;98466.19;5063765;28;20098;-48
2024/01/04 02:05:36;;;;;;;1.42;0.80;;;;;;;7.38;81.66;98475.63;5067147;28;20493;-47
2024/01/04 02:08:04;;;;;;;1.45;0.63;;;;;;;7.38;82.35;98476.47;5058813;28;20041;-45
2024/01/04 02:10:30;;;;;;;5.00;0.98;;;;;;;7.36;81.99;98483.38;5062657;28;20791;-46
2024/01/04 02:12:57;;;;;;;2.90;0.93;;;;;;;7.37;82.51;98477.38;5069232;28;20044;-45
2024/01/04 02:15:24;;;;;;;1.35;0.82;;;;;;;7.39;81.44;98482.47;5061105;28;20056;-49
2024/01/04 02:17:52;;;;;;;1.38;0.77;;;;;;;7.38;81.45;98480.78;5064031;28;20072;-47
2024/01/04 02:20:19;;;;;;;1.75;0.70;;;;;;;7.36;81.83;98483.38;5058794;28;20055;-52
2024/01/04 02:22:46;;;;;;;1.40;0.70;;;;;;;7.34;81.79;98490.28;5068337;28;20049;-46
2024/01/04 02:25:12;;;;;;;0.75;0.47;;;;;;;7.33;81.98;98502.28;5063895;28;20060;-49
2024/01/04 02:27:39;;;;;;;1.17;0.93;;;;;;;7.35;81.66;98491.97;5070150;28;20543;-51
2024/01/04 02:30:07;;;;;;;1.65;0.73;;;;;;;7.34;82.58;98495.44;5061276;28;20079;-43
2024/01/04 02:32:34;;;;;;;2.30;0.73;;;;;;;7.31;82.19;98490.31;5065244;28;20052;-52
2024/01/04 02:35:01;;;;;;;2.13;1.02;;;;;;;7.36;81.48;98503.97;5068974;28;20048;-46
2024/01/04 02:37:28;;;;;;;1.27;0.55;;;;;;;7.34;82.46;98490.28;5070718;28;20138;-46
2024/01/04 02:39:55;;;;;;;1.27;0.68;;;;;;;7.35;81.61;98499.69;5066680;28;20501;-50
2024/01/04 02:42:22;;;;;;;0.93;0.40;;;;;;;7.33;81.86;98502.28;5062894;28;20048;-51
2024/01/04 02:44:48;;;;;;;3.47;0.82;;;;;;;7.38;82.63;98509.97;5052019;28;20083;-44
2024/01/04 02:47:15;;;;;;;2.05;0.50;;;;;;;7.36;81.90;98501.41;5049006;28;20065;-46
2024/01/04 02:49:42;;;;;;;3.40;1.45;;;;;;;7.41;82.41;98501.34;5053672;28;20049;-44
2024/01/04 02:52:10;;;;;;;2.00;0.68;;;;;;;7.41;82.68;98517.66;5052087;28;20076;-48
2024/01/04 02:54:38;;;;;;;2.97;0.90;;;;;;;7.41;82.66;98512.50;5048275;28;20075;-47
2024/01/04 02:57:04;;;;;;;2.55;0.90;;;;;;;7.42;82.48;98509.03;5052042;28;20067;-44
2024/01/04 02:59:31;;;;;;;1.30;0.70;;;;;;;7.42;81.67;98506.47;5050889;28;20127;-44
2024/01/04 03:01:58;;;;;;;1.58;0.60;;;;;;;7.39;81.55;98509.09;5065625;28;20063;-44
2024/01/04 03:04:25;;;;;;;2.35;0.80;;;;;;;7.41;82.06;98507.34;5049793;28;20130;-50
2024/01/04 03:06:51;;;;;;;2.67;0.70;;;;;;;7.36;82.24;98511.69;5068277;28;20052;-49
2024/01/04 03:09:18;;;;;;;1.15;0.82;;;;;;;7.36;81.53;98503.97;5063298;28;20041;-46
2024/01/04 03:11:46;;;;;;;3.33;1.35;;;;;;;7.36;82.37;98506.53;5068820;28;20059;-48
2024/01/04 03:14:12;;;;;;;1.50;0.60;;;;;;;7.32;81.84;98499.75;5067010;28;20044;-47
2024/01/04 03:16:40;;;;;;;2.85;0.50;;;;;;;7.20;81.42;98493.06;5066408;28;20143;-49
2024/01/04 03:19:06;;;;;;;1.70;1.10;;;;;;;7.16;82.32;98497.38;5067449;28;20059;-43
2024/01/04 03:21:33;;;;;;;5.93;0.90;;;;;;;7.09;81.80;98506.06;5067890;28;20074;-46
2024/01/04 03:24:00;;;;;;;1.42;0.82;;;;;;;7.09;81.44;98507.81;5064531;28;20056;-49
2024/01/04 03:26:27;;;;;;;1.05;0.63;;;;;;;7.07;82.44;98508.66;5067879;28;20295;-47
2024/01/04 03:28:54;;;;;;;1.70;0.57;;;;;;;7.04;82.32;98524.16;5068192;28;20053;-50
2024/01/04 03:31:20;;;;;;;0.73;0.40;;;;;;;7.09;82.20;98521.50;5063328;28;20054;-51
2024/01/04 03:33:49;;;;;;;2.05;0.90;;;;;;;7.09;81.42;98531.81;5057031;28;20044;-46
2024/01/04 03:36:16;;;;;;;1.75;0.45;;;;;;;7.08;82.03;98522.38;5063490;28;20049;-50
2024/01/04 03:38:45;;;;;;;2.85;0.75;;;;;;;7.03;82.66;98526.75;5056084;28;20056;-51
2024/01/04 03:41:12;;;;;;;1.52;0.85;;;;;;;7.04;81.20;98539.59;5068126;28;20754;-52
2024/01/04 03:43:39;;;;;;;1.58;1.00;;;;;;;7.05;82.41;98540.44;5064284;28;20037;-44
2024/01/04 03:46:10;;;;;;;4.55;0.60;;;;;;;7.03;81.88;98537.06;5064988;28;20048;-44
2024/01/04 03:48:38;;;;;;;2.60;0.93;;;;;;;7.00;81.95;98526.78;5062992;28;20045;-51
2024/01/04 03:51:04;;;;;;;2.15;0.60;;;;;;;6.96;82.38;98536.28;5066992;28;20406;-50
2024/01/04 03:53:31;;;;;;;2.05;0.70;;;;;;;6.91;82.55;98544.06;5063990;28;20153;-51
2024/01/04 03:56:00;;;;;;;2.40;0.90;;;;;;;6.90;82.25;98547.50;5064398;28;20106;-47
2024/01/04 03:58:27;;;;;;;2.83;0.68;;;;;;;6.90;82.55;98544.94;5064710;28;20048;-45
2024/01/04 04:00:54;;;;;;;1.25;0.63;;;;;;;6.87;82.17;98542.38;5063049;28;20044;-45
2024/01/04 04:03:21;;;;;;;1.20;0.95;;;;;;;6.86;81.23;98540.66;5063646;28;20040;-54
2024/01/04 04:05:48;;;;;;;5.00;0.85;;;;;;;6.86;82.40;98550.97;5064791;28;20379;-46
2024/01/04 04:08:14;;;;;;;5.38;1.00;;;;;;;6.81;82.44;98552.75;5063219;28;20121;-44
2024/01/04 04:10:45;;;;;;;0.77;0.50;;;;;;;6.74;82.81;98557.13;5066780;28;20405;-46
2024/01/04 04:13:12;;;;;;;0.88;0.50;;;;;;;6.77;82.70;98551.06;5066483;28;20494;-45
2024/01/04 04:15:38;;;;;;;1.73;0.68;;;;;;;6.73;82.45;98559.69;5065831;28;20136;-54
2024/01/04 04:18:06;;;;;;;1.80;0.55;;;;;;;6.67;82.58;98556.34;5060824;28;20040;-49
2024/01/04 04:20:34;;;;;;;6.13;0.93;;;;;;;6.70;81.81;98568.31;5064874;28;20044;-47
2024/01/04 04:23:00;;;;;;;0.82;0.50;;;;;;;6.67;81.68;98566.63;5066304;28;20052;-43
2024/01/04 04:25:27;;;;;;;0.95;0.60;;;;;;;6.66;81.80;98564.91;5068889;28;20048;-49
2024/01/04 04:27:55;;;;;;;1.23;0.57;;;;;;;6.65;81.63;98572.63;5061900;28;20052;-54
2024/01/04 04:30:22;;;;;;;2.65;0.63;;;;;;;6.60;81.06;98575.28;5064224;28;20466;-48
2024/01/04 04:32:48;;;;;;;4.18;1.00;;;;;;;6.62;81.14;98580.41;5063567;28;20501;-44
2024/01/04 04:35:15;;;;;;;1.98;0.88;;;;;;;6.59;81.18;98583.88;5066145;28;20469;-45
2024/01/04 04:37:42;;;;;;;5.20;0.70;;;;;;;6.58;82.32;98587.28;5060232;28;20048;-49
2024/01/04 04:40:10;;;;;;;5.13;0.70;;;;;;;6.58;80.93;98597.56;5061140;28;20052;-51
2024/01/04 04:42:41;;;;;;;2.60;0.70;;;;;;;6.53;82.34;98594.22;5065369;28;20043;-50
2024/01/04 04:45:08;;;;;;;1.58;0.77;;;;;;;6.49;82.12;98587.38;5066106;28;20060;-48
2024/01/04 04:47:34;;;;;;;3.08;0.90;;;;;;;6.51;81.16;98595.94;5063587;28;20127;-52
2024/01/04 04:50:01;;;;;;;4.00;1.13;;;;;;;6.48;81.15;98595.97;5067059;28;20136;-46
2024/01/04 04:52:28;;;;;;;6.43;0.75;;;;;;;6.47;82.26;98601.97;5065000;28;20485;-47
2024/01/04 04:54:54;;;;;;;2.70;0.98;;;;;;;6.41;82.07;98596.03;5065621;28;20094;-46
2024/01/04 04:57:21;;;;;;;2.22;0.82;;;;;;;6.43;82.13;98603.72;5060498;28;20053;-47
2024/01/04 04:59:49;;;;;;;3.75;0.85;;;;;;;6.42;80.99;98596.88;5067566;28;20037;-47
2024/01/04 05:02:17;;;;;;;0.88;0.38;;;;;;;6.38;82.15;98598.63;5063132;28;20049;-45
2024/01/04 05:04:45;;;;;;;2.25;0.70;;;;;;;6.37;81.87;98603.78;5065607;28;20060;-43
2024/01/04 05:07:12;;;;;;;1.65;0.60;;;;;;;6.34;82.68;98609.81;5065472;28;20048;-45
2024/01/04 05:09:38;;;;;;;3.58;0.60;;;;;;;6.35;81.75;98606.34;5061969;28;20044;-50
2024/01/04 05:12:06;;;;;;;2.83;1.67;;;;;;;6.32;80.91;98608.97;5065287;28;20387;-48
2024/01/04 05:14:33;;;;;;;3.55;0.73;;;;;;;6.25;82.71;98609.91;5067158;28;20404;-46
2024/01/04 05:17:00;;;;;;;3.88;0.32;;;;;;;6.28;82.40;98604.69;5062533;28;20084;-51
2024/01/04 05:19:26;;;;;;;1.38;0.68;;;;;;;6.21;82.57;98608.22;5065491;28;20047;-49
2024/01/04 05:21:53;;;;;;;1.17;0.60;;;;;;;6.22;81.76;98615.06;5069304;28;20068;-48
2024/01/04 05:24:20;;;;;;;1.92;0.45;;;;;;;6.22;82.57;98615.06;5067906;28;20059;-49
2024/01/04 05:26:48;;;;;;;2.42;0.60;;;;;;;6.17;82.60;98618.53;5066687;28;20387;-44
2024/01/04 05:29:15;;;;;;;3.10;0.70;;;;;;;6.20;81.24;98614.19;5070243;28;20391;-48
2024/01/04 05:31:41;;;;;;;1.42;0.82;;;;;;;6.19;82.02;98612.50;5070614;28;20044;-50
2024/01/04 05:34:08;;;;;;;4.38;0.95;;;;;;;6.19;80.86;98626.22;5068086;28;20417;-48
2024/01/04 05:36:35;;;;;;;2.75;0.98;;;;;;;6.20;82.46;98629.63;5069081;28;20047;-50
2024/01/04 05:39:03;;;;;;;3.78;1.02;;;;;;;6.16;80.80;98629.69;5069562;28;20045;-44
2024/01/04 05:41:30;;;;;;;1.25;0.73;;;;;;;6.12;80.99;98629.69;5068050;28;20049;-42
2024/01/04 05:43:56;;;;;;;1.23;0.50;;;;;;;6.13;82.42;98639.97;5071041;28;20068;-46
2024/01/04 05:46:23;;;;;;;3.60;0.52;;;;;;;6.13;81.72;98634.84;5065864;28;20048;-46
2024/01/04 05:48:50;;;;;;;0.73;0.52;;;;;;;6.15;82.39;98640.81;5069724;28;20060;-47
2024/01/04 05:51:17;;;;;;;1.90;1.13;;;;;;;6.13;81.61;98637.41;5069675;28;20090;-52
2024/01/04 05:53:43;;;;;;;1.20;0.60;;;;;;;6.13;81.30;98644.25;5063251;28;20579;-51
2024/01/04 05:56:10;;;;;;;4.00;0.85;;;;;;;6.12;81.40;98650.28;5065641;28;20052;-46
2024/01/04 05:58:37;;;;;;;4.82;0.63;;;;;;;6.11;80.87;98653.72;5063843;28;20448;-48
2024/01/04 06:01:03;;;;;;;4.22;0.82;;;;;;;6.09;82.09;98656.28;5068872;28;20048;-48
2024/01/04 06:03:30;;;;;;;3.08;0.60;;;;;;;6.05;82.15;98659.75;5066029;28;20486;-49
2024/01/04 06:05:57;;;;;;;3.80;0.65;;;;;;;6.04;82.53;98663.16;5060741;28;20045;-49
2024/01/04 06:08:24;;;;;;;2.55;0.52;;;;;;;6.05;82.11;98670.03;5062304;28;20131;-48
2024/01/04 06:10:51;;;;;;;2.90;1.13;;;;;;;6.01;81.65;98663.16;5066301;28;20063;-45
2024/01/04 06:13:18;;;;;;;4.15;0.60;;;;;;;6.00;81.64;98666.59;5066766;28;20041;-49
2024/01/04 06:15:45;;;;;;;2.03;0.32;;;;;;;5.98;81.31;98673.47;5069642;28;20230;-49
2024/01/04 06:18:12;;;;;;;4.40;0.68;;;;;;;5.97;81.69;98661.44;5067170;28;20045;-47
2024/01/04 06:20:39;;;;;;;3.97;1.13;;;;;;;5.95;80.83;98658.06;5069564;28;20041;-46
2024/01/04 06:23:06;;;;;;;2.97;0.80;;;;;;;5.94;81.16;98648.66;5062934;28;20049;-54
2024/01/04 06:25:33;;;;;;;4.10;0.75;;;;;;;5.90;81.67;98661.50;5062574;28;20059;-46
2024/01/04 06:27:59;;;;;;;4.78;1.02;;;;;;;5.89;81.01;98658.94;5058312;28;20060;-45
2024/01/04 06:30:26;;;;;;;3.28;0.95;;;;;;;5.82;81.77;98658.13;5058474;28;20044;-49
2024/01/04 06:32:53;;;;;;;3.83;0.75;;;;;;;5.83;82.28;98664.97;5063702;28;20163;-48
2024/01/04 06:35:20;;;;;;;1.83;0.98;;;;;;;5.81;82.24;98666.69;5056091;28;20422;-47
2024/01/04 06:37:47;;;;;;;4.35;1.08;;;;;;;5.77;80.63;98665.88;5061145;28;20401;-47
2024/01/04 06:40:15;;;;;;;2.67;1.10;;;;;;;5.74;80.60;98676.16;5065367;28;20061;-51
2024/01/04 06:42:42;;;;;;;3.00;0.93;;;;;;;5.70;81.65;98679.59;5069449;28;20083;-48
2024/01/04 06:45:09;;;;;;;5.82;1.00;;;;;;;5.69;82.28;98679.59;5065752;28;20053;-45
2024/01/04 06:47:37;;;;;;;2.17;0.65;;;;;;;5.64;80.79;98683.06;5065145;28;20053;-47
2024/01/04 06:50:04;;;;;;;2.88;1.10;;;;;;;5.64;81.57;98685.63;5067962;28;20051;-42
2024/01/04 06:52:43;;;;;;;4.60;0.80;;;;;;;5.60;80.63;98678.78;5065758;28;20061;-45
2024/01/04 06:55:12;;;;;;;2.22;0.85;;;;;;;5.59;81.23;98684.78;5067971;28;20052;-42
2024/01/04 06:57:40;;;;;;;1.63;0.80;;;;;;;5.56;81.42;98682.22;5063328;28;20049;-50
2024/01/04 07:00:07;;;;;;;7.15;0.95;;;;;;;5.51;81.33;98676.28;5065944;28;20425;-49
2024/01/04 07:02:35;;;;;;;7.85;1.00;;;;;;;5.50;81.45;98682.25;5063670;28;20044;-51
2024/01/04 07:05:03;;;;;;;3.05;0.70;;;;;;;5.49;80.53;98686.56;5063891;28;20079;-47
2024/01/04 07:07:30;;;;;;;4.63;0.60;;;;;;;5.49;81.52;98686.56;5067427;28;20091;-47
2024/01/04 07:09:59;;;;;;;4.40;0.77;;;;;;;5.45;81.97;98686.56;5065972;28;20044;-49
2024/01/04 07:12:26;;;;;;;5.93;0.68;;;;;;;5.43;81.73;98686.56;5065536;28;20052;-47
2024/01/04 07:14:55;;;;;;;5.78;0.70;;;;;;;5.39;82.23;98685.72;5066900;28;20044;-49
2024/01/04 07:17:22;;;;;;;3.45;0.50;;;;;;;5.35;82.08;98690.88;5064581;28;20528;-49
2024/01/04 07:19:49;;;;;;;6.05;0.55;;;;;;;5.35;80.91;98689.16;5065147;28;20072;-46
2024/01/04 07:22:16;;;;;;;7.15;0.85;;;;;;;5.30;82.03;98685.75;5066715;28;20400;-46
2024/01/04 07:24:44;;;;;;;2.88;0.60;;;;;;;5.30;81.66;98685.75;5065549;28;20051;-46
2024/01/04 07:27:11;;;;;;;5.15;0.52;;;;;;;5.25;81.63;98690.91;5060699;28;20056;-47
2024/01/04 07:29:38;;;;;;;5.30;0.82;;;;;;;5.26;82.36;98686.63;5061177;28;20072;-46
2024/01/04 07:32:05;;;;;;;2.05;0.55;;;;;;;5.24;81.62;98690.91;5064320;28;20053;-50
2024/01/04 07:34:36;;;;;;;8.77;1.00;;;;;;;5.22;81.20;98692.63;5064115;28;20048;-41
2024/01/04 07:37:03;;;;;;;5.47;1.08;;;;;;;5.20;82.19;98689.22;5062710;28;20518;-47
2024/01/04 07:39:30;;;;;;;6.93;0.95;;;;;;;5.16;81.43;98690.09;5062252;28;20051;-43
2024/01/04 07:41:58;;;;;;;7.97;0.80;;;;;;;5.18;80.64;98691.78;5066549;28;20128;-48
2024/01/04 07:44:25;;;;;;;2.55;0.75;;;;;;;5.14;80.77;98695.22;5057153;28;20223;-47
2024/01/04 07:46:52;;;;;;;7.45;1.40;;;;;;;5.14;82.02;98703.75;5065622;28;20106;-46
2024/01/04 07:49:18;;;;;;;6.20;1.20;;;;;;;5.11;81.54;98706.34;5061098;28;20045;-45
2024/01/04 07:51:45;;;;;;;4.95;0.90;;;;;;;5.07;81.52;98709.75;5060411;28;20071;-45
2024/01/04 07:54:14;;;;;;;4.00;0.88;;;;;;;5.05;82.35;98706.34;5068546;28;20053;-46
2024/01/04 07:56:41;;;;;;;3.35;1.00;;;;;;;5.08;81.07;98715.75;5064854;28;20040;-45
2024/01/04 07:59:09;;;;;;;2.60;0.55;;;;;;;5.03;82.05;98720.88;5065510;28;20137;-49
2024/01/04 08:01:35;;;;;;;6.05;0.93;;;;;;;5.06;82.02;98714.91;5058043;28;20490;-47
2024/01/04 08:04:03;;;;;;;10.30;2.03;;;;;;;5.03;82.11;98715.75;5066464;28;20139;-42
2024/01/04 08:06:31;;;;;;;7.25;0.95;;;;;;;5.03;80.97;98717.50;5062240;28;20076;-42
2024/01/04 08:08:58;;;;;;;4.65;1.20;;;;;;;5.01;81.03;98720.06;5062631;28;20056;-53
2024/01/04 08:11:26;;;;;;;4.35;0.73;;;;;;;4.99;80.88;98717.50;5067934;28;20094;-45
2024/01/04 08:13:52;;;;;;;10.40;0.77;;;;;;;4.98;81.06;98714.91;5056157;28;20044;-45
2024/01/04 08:16:19;;;;;;;5.55;1.20;;;;;;;4.97;81.63;98718.34;5062407;28;20079;-45
2024/01/04 08:18:46;;;;;;;4.93;1.15;;;;;;;4.99;80.80;98722.63;5066272;28;20150;-46
2024/01/04 08:21:13;;;;;;;2.33;0.93;;;;;;;4.96;80.92;98717.47;5066408;28;20056;-45
2024/01/04 08:23:41;;;;;;;4.25;1.17;;;;;;;4.99;82.32;98726.88;5063588;28;20047;-48
2024/01/04 08:26:09;;;;;;;2.22;0.65;;;;;;;5.00;81.08;98723.50;5063077;28;20048;-48
2024/01/04 08:28:36;;;;;;;5.57;0.57;;;;;;;5.01;80.87;98730.31;5064647;28;20036;-48
2024/01/04 08:31:05;;;;;;;8.57;1.00;;;;;;;5.02;82.17;98737.16;5058581;28;20045;-45
2024/01/04 08:33:32;;;;;;;8.52;0.85;;;;;;;5.08;82.09;98732.03;5060253;28;20550;-48
2024/01/04 08:35:59;;;;;;;10.38;1.02;;;;;;;5.14;81.47;98737.13;5066530;28;20047;-45
2024/01/04 08:38:26;;;;;;;5.07;0.70;;;;;;;5.21;81.92;98737.13;5062555;28;20552;-51
2024/01/04 08:40:54;;;;;;;5.28;1.00;;;;;;;5.22;81.77;98741.41;5057660;28;20478;-47
2024/01/04 08:43:21;;;;;;;12.45;1.45;;;;;;;5.31;82.19;98738.81;5061406;28;20075;-50
2024/01/04 08:45:49;;;;;;;4.97;0.93;;;;;;;5.40;81.06;98737.91;5058453;28;20654;-49
2024/01/04 08:48:16;;;;;;;1.73;0.60;;;;;;;5.45;80.51;98738.78;5063660;28;20049;-52
2024/01/04 08:50:44;;;;;;;3.45;1.27;;;;;;;5.59;80.85;98743.88;5056104;28;20067;-47
2024/01/04 08:53:13;;;;;;;6.20;0.90;;;;;;;5.76;80.37;98748.09;5062548;28;20059;-45
2024/01/04 08:55:39;;;;;;;6.25;1.25;;;;;;;6.03;80.24;98751.41;5066611;28;20044;-42
2024/01/04 08:58:08;;;;;;;4.18;0.63;;;;;;;6.41;81.68;98750.34;5066763;28;20045;-54
2024/01/04 09:00:36;;;;;;;8.10;0.93;;;;;;;6.66;79.86;98754.47;5069367;28;20055;-46
2024/01/04 09:03:03;;;;;;;5.82;0.80;;;;;;;6.85;79.80;98750.00;5066595;28;20052;-48
2024/01/04 09:05:30;;;;;;;4.22;0.93;;;;;;;7.09;79.50;98763.53;5065614;28;20046;-48
2024/01/04 09:07:57;;;;;;;9.00;1.20;;;;;;;7.40;79.71;98762.41;5068788;28;20117;-46
2024/01/04 09:10:24;;;;;;;9.75;1.23;;;;;;;7.71;79.82;98762.06;5069672;28;20493;-43
2024/01/04 09:12:51;;;;;;;3.65;1.00;;;;;;;8.07;78.49;98769.34;5069131;28;20090;-49
2024/01/04 09:15:18;;;;;;;12.90;1.23;;;;;;;8.47;78.47;98766.22;5066851;28;20043;-45
2024/01/04 09:17:46;;;;;;;6.45;1.50;;;;;;;8.69;77.20;98762.47;5064620;28;20047;-46
2024/01/04 09:20:13;;;;;;;7.07;1.08;;;;;;;8.70;76.98;98761.59;5062132;28;20442;-53
2024/01/04 09:22:40;;;;;;;7.07;0.77;;;;;;;8.61;76.62;98765.16;5067287;28;20501;-51
2024/01/04 09:25:07;;;;;;;9.85;0.88;;;;;;;8.38;75.85;98768.94;5066355;28;20110;-45
2024/01/04 09:27:35;;;;;;;6.85;1.35;;;;;;;8.16;76.30;98764.06;5069020;28;20079;-45
2024/01/04 09:30:02;;;;;;;5.88;0.63;;;;;;;7.95;75.55;98771.22;5066762;28;20056;-53
2024/01/04 09:32:29;;;;;;;4.55;0.88;;;;;;;7.72;75.52;98759.47;5064812;28;20115;-43
2024/01/04 09:34:56;;;;;;;8.90;1.40;;;;;;;7.56;76.52;98757.91;5064681;28;20090;-49
2024/01/04 09:37:23;;;;;;;7.60;1.50;;;;;;;7.43;76.41;98757.22;5068340;28;20127;-48
2024/01/04 09:39:55;;;;;;;9.43;0.93;;;;;;;7.37;75.99;98752.97;5068315;28;20456;-50
2024/01/04 09:42:23;;;;;;;2.13;0.50;;;;;;;7.27;76.21;98759.09;5070372;28;20521;-51
2024/01/04 09:44:53;;;;;;;8.70;1.52;;;;;;;7.17;76.79;98748.84;5064244;28;20143;-47
2024/01/04 09:47:23;;;;;;;4.95;1.08;;;;;;;7.24;76.85;98764.25;5064120;28;20101;-48
2024/01/04 09:49:51;;;;;;;7.60;1.00;;;;;;;7.28;76.91;98753.06;5063941;28;20052;-47
2024/01/04 09:52:20;;;;;;;3.45;0.90;;;;;;;7.36;76.79;98756.41;5066353;28;20075;-47
2024/01/04 09:54:48;;;;;;;8.57;1.10;;;;;;;7.43;77.13;98752.91;5068828;28;20040;-46
2024/01/04 09:57:15;;;;;;;2.47;1.10;;;;;;;7.58;77.28;98751.91;5069850;28;20445;-46
2024/01/04 09:59:43;;;;;;;7.72;1.38;;;;;;;7.79;77.43;98749.06;5064578;28;20053;-49
2024/01/04 10:02:17;;;;;;;9.18;0.98;;;;;;;8.04;76.63;98743.59;5062579;28;20510;-47
2024/01/04 10:04:46;;;;;;;7.38;1.73;;;;;;;8.33;76.59;98744.91;5063111;28;20139;-47
2024/01/04 10:07:21;;;;;;;2.38;0.50;;;;;;;8.69;77.04;98742.69;5065536;28;20048;-46
2024/01/04 10:09:59;;;;;;;9.85;1.70;;;;;;;9.05;76.49;98752.41;5061794;28;20052;-49
2024/01/04 10:12:32;;;;;;;6.63;0.88;;;;;;;9.31;75.56;98756.25;5055653;28;20131;-45
2024/01/04 10:15:00;;;;;;;9.15;1.30;;;;;;;9.30;75.24;98759.75;5064836;28;20568;-46
2024/01/04 10:17:26;;;;;;;6.57;0.60;;;;;;;9.23;74.96;98764.13;5068729;28;20139;-48
2024/01/04 10:19:54;;;;;;;5.90;0.93;;;;;;;9.21;74.59;98765.06;5066815;28;20529;-44
2024/01/04 10:22:22;;;;;;;7.00;0.70;;;;;;;9.11;74.62;98770.41;5065239;28;20088;-47
2024/01/04 10:24:51;;;;;;;8.70;1.35;;;;;;;9.05;74.48;98769.66;5062077;28;20831;-45
2024/01/04 10:27:18;;;;;;;8.88;0.88;;;;;;;9.06;74.00;98771.34;5060776;28;20081;-50
2024/01/04 10:29:48;;;;;;;5.97;0.65;;;;;;;9.19;74.21;98767.66;5064246;28;20052;-46
2024/01/04 10:32:17;;;;;;;7.20;0.80;;;;;;;9.61;74.29;98763.47;5060511;28;20068;-49
2024/01/04 10:34:44;;;;;;;4.65;1.23;;;;;;;9.81;73.56;98764.78;5066704;28;20131;-50
2024/01/04 10:37:14;;;;;;;9.10;0.90;;;;;;;9.76;73.10;98765.75;5069492;28;20105;-48
2024/01/04 10:39:45;;;;;;;6.72;1.25;;;;;;;10.03;72.81;98766.06;5066230;28;20076;-49
2024/01/04 10:42:13;;;;;;;6.05;1.52;;;;;;;9.99;72.96;98769.59;5061040;28;20072;-46
2024/01/04 10:44:43;;;;;;;7.43;1.10;;;;;;;9.95;72.06;98760.19;5066703;28;20071;-52
2024/01/04 10:47:13;;;;;;;6.93;0.90;;;;;;;9.81;72.35;98757.03;5063873;28;20048;-46
2024/01/04 10:49:41;;;;;;;7.60;1.40;;;;;;;9.76;71.95;98763.16;5057262;28;20140;-48
2024/01/04 10:52:14;;;;;;;4.25;0.77;;;;;;;9.80;72.26;98765.69;5063345;28;20155;-48
2024/01/04 10:54:42;;;;;;;6.43;0.60;;;;;;;9.85;72.62;98759.53;5069736;28;20045;-47
2024/01/04 10:57:12;;;;;;;6.63;0.80;;;;;;;9.76;72.41;98757.13;5064681;28;20052;-48
2024/01/04 10:59:43;;;;;;;4.72;1.42;;;;;;;9.62;72.21;98754.81;5066022;28;20048;-45
2024/01/04 11:02:13;;;;;;;4.78;1.02;;;;;;;9.55;72.43;98753.25;5059326;28;20049;-53
2024/01/04 11:04:41;;;;;;;5.97;0.98;;;;;;;9.46;73.37;98760.28;5061489;28;20091;-48
2024/01/04 11:07:08;;;;;;;7.68;0.98;;;;;;;9.41;73.19;98751.78;5065504;28;20048;-49
2024/01/04 11:09:36;;;;;;;4.28;0.60;;;;;;;9.35;72.49;98751.88;5064632;28;20044;-45
2024/01/04 11:12:05;;;;;;;5.55;0.93;;;;;;;9.24;72.33;98755.53;5063652;28;20056;-50
2024/01/04 11:14:32;;;;;;;5.28;0.88;;;;;;;9.16;72.84;98751.38;5062609;28;20468;-51
2024/01/04 11:26:13;;;;;;;7.78;2.47;;;;;;;8.69;73.66;98758.19;5055054;28;20397;-49
2024/01/04 11:28:39;;;;;;;2.63;2.25;;;;;;;8.70;73.62;98759.88;5033748;28;20047;-48
2024/01/04 11:31:07;;;;;;;7.18;1.40;;;;;;;8.73;73.21;98754.66;5037565;28;20045;-48
2024/01/04 11:33:49;;;;;;;5.35;0.60;;;;;;;8.73;73.74;98754.66;5071243;28;20044;-49
2024/01/04 11:36:19;;;;;;;5.03;2.00;;;;;;;8.73;73.84;98765.00;5075969;28;20044;-48
2024/01/04 11:38:47;;;;;;;13.80;5.07;;;;;;;8.72;73.63;98752.94;5069412;27;20149;-49
2024/01/04 11:41:16;;;;;;;5.72;2.80;;;;;;;8.74;74.43;98745.19;5077850;28;20055;-48
2024/01/04 11:43:47;;;;;;;9.45;1.02;;;;;;;8.73;74.36;98739.19;5080841;28;20051;-50
2024/01/04 11:46:21;;;;;;;5.88;0.70;;;;;;;8.71;74.34;98735.75;5071504;28;20041;-47
2024/01/04 11:51:33;;;;;;;3.42;1.05;;;;;;;8.61;74.32;98729.03;5008038;28;20393;-48
2024/01/04 11:54:00;;;;;;;6.72;1.40;;;;;;;8.56;74.52;98716.22;4995320;28;20069;-50